createdAt,value
2023-10-04T00:00:35.312Z,89.96
2023-10-04T00:03:03.143Z,90.04
2023-10-04T00:05:31.826Z,89.03
2023-10-04T00:08:00.428Z,88.03
2023-10-04T00:10:28.137Z,84.86
2023-10-04T00:12:55.895Z,84.12
2023-10-04T00:15:26.634Z,85.06
2023-10-04T00:17:54.994Z,86.60
2023-10-04T00:20:23.912Z,86.83
2023-10-04T00:22:51.885Z,86.96
2023-10-04T00:25:23.222Z,87.87
2023-10-04T00:27:53.694Z,89.33
2023-10-04T00:30:21.232Z,88.22
2023-10-04T00:32:49.226Z,88.55
2023-10-04T00:35:20.903Z,89.26
2023-10-04T00:37:57.549Z,90.60
2023-10-04T00:40:33.760Z,90.79
2023-10-04T00:43:04.009Z,91.82
2023-10-04T00:45:34.150Z,91.02
2023-10-04T00:48:09.688Z,90.36
2023-10-04T00:50:38.006Z,90.21
2023-10-04T00:53:10.776Z,91.30
2023-10-04T00:55:45.013Z,91.92
2023-10-04T00:58:18.358Z,92.25
2023-10-04T01:00:47.571Z,92.42
2023-10-04T01:03:25.834Z,92.83
2023-10-04T01:05:55.832Z,92.54
2023-10-04T01:08:24.728Z,91.92
2023-10-04T01:10:55.840Z,91.92
2023-10-04T01:13:23.962Z,92.83
2023-10-04T01:15:56.403Z,92.53
2023-10-04T01:18:25.078Z,92.25
2023-10-04T01:20:53.046Z,89.62
2023-10-04T01:23:20.700Z,91.43
2023-10-04T01:25:48.994Z,93.30
2023-10-04T01:28:29.996Z,94.48
2023-10-04T01:31:02.045Z,94.24
2023-10-04T01:33:30.570Z,94.13
2023-10-04T01:36:01.119Z,94.08
2023-10-04T01:38:28.979Z,93.80
2023-10-04T01:40:57.679Z,91.76
2023-10-04T01:43:27.862Z,91.15
2023-10-04T01:45:59.741Z,91.34
2023-10-04T01:48:32.583Z,91.47
2023-10-04T01:51:07.674Z,90.97
2023-10-04T01:53:36.611Z,90.43
2023-10-04T01:56:07.057Z,90.86
2023-10-04T01:58:34.909Z,90.76
2023-10-04T02:01:02.563Z,91.29
2023-10-04T02:03:31.502Z,91.68
2023-10-04T02:06:01.320Z,92.13
2023-10-04T02:08:29.716Z,91.85
2023-10-04T02:10:59.251Z,91.88
2023-10-04T02:13:28.574Z,91.90
2023-10-04T02:15:56.218Z,91.44
2023-10-04T02:18:24.030Z,92.08
2023-10-04T02:20:54.515Z,92.89
2023-10-04T02:23:22.878Z,92.69
2023-10-04T02:25:50.752Z,92.38
2023-10-04T02:28:25.137Z,92.76
2023-10-04T02:30:56.165Z,93.26
2023-10-04T02:33:33.094Z,93.29
2023-10-04T02:36:08.084Z,92.78
2023-10-04T02:38:36.731Z,92.81
2023-10-04T02:41:08.094Z,93.03
2023-10-04T02:43:41.272Z,92.74
2023-10-04T02:46:11.587Z,92.65
2023-10-04T02:48:39.176Z,92.77
2023-10-04T02:51:06.870Z,93.07
2023-10-04T02:53:35.558Z,94.15
2023-10-04T02:56:08.335Z,95.92
2023-10-04T02:58:42.993Z,96.46
2023-10-04T03:01:19.209Z,96.72
2023-10-04T03:03:47.652Z,96.94
2023-10-04T03:06:15.539Z,96.83
2023-10-04T03:08:43.493Z,97.04
2023-10-04T03:11:13.360Z,97.27
2023-10-04T03:13:41.633Z,96.96
2023-10-04T03:16:11.095Z,97.56
2023-10-04T03:18:41.217Z,97.93
2023-10-04T03:21:12.473Z,97.83
2023-10-04T03:23:44.371Z,96.67
2023-10-04T03:26:16.314Z,97.17
2023-10-04T03:28:47.060Z,97.79
2023-10-04T03:31:16.484Z,98.14
2023-10-04T03:33:50.394Z,98.35
2023-10-04T03:36:22.666Z,98.01
2023-10-04T03:38:59.874Z,97.94
2023-10-04T03:41:29.260Z,99.40
2023-10-04T03:44:04.426Z,99.26
2023-10-04T03:46:32.680Z,99.13
2023-10-04T03:49:04.528Z,98.99
2023-10-04T03:51:32.838Z,99.24
2023-10-04T03:54:08.662Z,100.00
2023-10-04T03:56:42.476Z,100.00
2023-10-04T03:59:12.248Z,99.17
2023-10-04T04:01:40.211Z,99.00
2023-10-04T04:04:15.955Z,99.81
2023-10-04T04:06:45.121Z,99.55
2023-10-04T04:09:14.423Z,99.78
2023-10-04T04:11:41.945Z,99.42
2023-10-04T04:14:09.693Z,99.86
2023-10-04T04:16:38.946Z,100.00
2023-10-04T04:19:09.675Z,100.00
2023-10-04T04:21:37.465Z,100.00
2023-10-04T04:24:11.050Z,100.00
2023-10-04T04:26:40.606Z,99.87
2023-10-04T04:29:11.070Z,100.00
2023-10-04T04:31:42.049Z,100.00
2023-10-04T04:34:14.639Z,99.91
2023-10-04T04:36:43.477Z,99.82
2023-10-04T04:39:17.780Z,98.13
2023-10-04T04:41:47.575Z,98.96
2023-10-04T04:44:21.793Z,99.37
2023-10-04T04:46:50.174Z,99.29
2023-10-04T04:49:18.458Z,98.07
2023-10-04T04:51:46.385Z,96.91
2023-10-04T04:54:13.940Z,98.21
2023-10-04T04:56:41.682Z,99.33
2023-10-04T04:59:12.974Z,100.00
2023-10-04T05:01:42.315Z,100.00
2023-10-04T05:04:10.742Z,100.00
2023-10-04T05:06:39.934Z,100.00
2023-10-04T05:09:11.504Z,100.00
2023-10-04T05:11:39.939Z,100.00
2023-10-04T05:14:08.236Z,100.00
2023-10-04T05:16:36.244Z,99.83
2023-10-04T05:19:12.015Z,99.90
2023-10-04T05:21:39.677Z,100.00
2023-10-04T05:24:08.023Z,100.00
2023-10-04T05:26:38.329Z,100.00
2023-10-04T05:29:06.029Z,100.00
2023-10-04T05:31:33.816Z,100.00
2023-10-04T05:34:05.093Z,100.00
2023-10-04T05:36:35.649Z,100.00
2023-10-04T05:39:05.218Z,100.00
2023-10-04T05:41:33.112Z,100.00
2023-10-04T05:44:00.809Z,99.88
2023-10-04T05:46:28.890Z,99.61
2023-10-04T05:49:04.860Z,99.29
2023-10-04T05:51:33.189Z,99.45
2023-10-04T05:54:00.546Z,98.04
2023-10-04T05:56:28.622Z,96.45
2023-10-04T05:59:15.291Z,97.40
2023-10-04T06:01:43.243Z,96.84
2023-10-04T06:04:12.338Z,96.18
2023-10-04T06:06:41.702Z,96.65
2023-10-04T06:09:10.865Z,96.42
2023-10-04T06:11:38.123Z,94.67
2023-10-04T06:14:05.343Z,95.12
2023-10-04T06:16:32.661Z,95.43
2023-10-04T06:19:00.105Z,96.30
2023-10-04T06:21:28.198Z,95.32
2023-10-04T06:23:55.454Z,95.99
2023-10-04T06:26:23.209Z,96.23
2023-10-04T06:28:51.438Z,97.64
2023-10-04T06:31:19.091Z,96.22
2023-10-04T06:33:46.437Z,96.04
2023-10-04T06:36:14.902Z,96.44
2023-10-04T06:38:42.368Z,95.10
2023-10-04T06:41:09.758Z,94.63
2023-10-04T06:43:37.336Z,94.75
2023-10-04T06:46:05.040Z,94.65
2023-10-04T06:48:33.539Z,94.53
2023-10-04T06:51:02.059Z,94.57
2023-10-04T06:53:29.980Z,93.83
2023-10-04T06:55:59.723Z,94.63
2023-10-04T06:58:28.362Z,94.48
2023-10-04T07:00:57.995Z,94.32
2023-10-04T07:03:27.845Z,94.25
2023-10-04T07:05:55.410Z,94.10
2023-10-04T07:08:22.735Z,94.78
2023-10-04T07:10:50.973Z,94.52
2023-10-04T07:13:18.160Z,93.76
2023-10-04T07:15:46.058Z,93.97
2023-10-04T07:18:14.459Z,93.45
2023-10-04T07:20:42.600Z,94.50
2023-10-04T07:23:11.662Z,95.60
2023-10-04T07:25:40.023Z,93.95
2023-10-04T07:28:11.099Z,94.36
2023-10-04T07:30:39.808Z,95.09
2023-10-04T07:33:08.551Z,94.72
2023-10-04T07:35:36.429Z,94.35
2023-10-04T07:38:07.415Z,94.25
2023-10-04T07:40:36.662Z,94.67
2023-10-04T07:43:04.655Z,93.97
2023-10-04T07:45:33.820Z,94.29
2023-10-04T07:48:03.494Z,94.56
2023-10-04T07:50:33.723Z,92.99
2023-10-04T07:53:06.218Z,93.41
2023-10-04T07:55:35.163Z,92.60
2023-10-04T07:58:06.958Z,92.93
2023-10-04T08:00:39.845Z,92.59
2023-10-04T08:03:09.084Z,92.85
2023-10-04T08:05:37.445Z,91.69
2023-10-04T08:08:07.463Z,92.86
2023-10-04T08:10:37.144Z,93.22
2023-10-04T08:13:06.390Z,92.88
2023-10-04T08:15:36.846Z,93.08
2023-10-04T08:18:05.626Z,92.95
2023-10-04T08:20:35.117Z,93.34
2023-10-04T08:23:06.829Z,93.91
2023-10-04T08:25:35.816Z,94.00
2023-10-04T08:28:04.298Z,93.47
2023-10-04T08:30:32.456Z,93.67
2023-10-04T08:33:00.957Z,93.19
2023-10-04T08:35:29.878Z,91.06
2023-10-04T08:38:00.945Z,90.96
2023-10-04T08:40:29.362Z,92.17
2023-10-04T08:42:56.900Z,91.72
2023-10-04T08:45:25.530Z,92.40
2023-10-04T08:47:56.472Z,88.34
2023-10-04T08:50:30.562Z,87.58
2023-10-04T08:53:04.360Z,88.66
2023-10-04T08:55:37.683Z,87.60
2023-10-04T08:58:05.875Z,87.63
2023-10-04T09:00:36.162Z,86.33
2023-10-04T09:03:08.584Z,85.58
2023-10-04T09:05:37.418Z,86.93
2023-10-04T09:08:05.384Z,87.71
2023-10-04T09:10:34.590Z,84.71
2023-10-04T09:13:05.141Z,85.95
2023-10-04T09:15:32.726Z,86.29
2023-10-04T09:18:04.218Z,86.59
2023-10-04T09:20:33.264Z,85.94
2023-10-04T09:23:01.144Z,86.52
2023-10-04T09:25:38.093Z,86.43
2023-10-04T09:28:05.866Z,86.39
2023-10-04T09:30:35.362Z,85.41
2023-10-04T09:33:22.831Z,85.51
2023-10-04T09:35:50.344Z,84.15
2023-10-04T09:38:26.291Z,84.46
2023-10-04T09:40:58.050Z,84.25
2023-10-04T09:43:33.771Z,82.38
2023-10-04T09:46:01.201Z,81.14
2023-10-04T09:48:35.447Z,80.43
2023-10-04T09:51:05.775Z,79.50
2023-10-04T09:53:33.283Z,79.76
2023-10-04T09:56:02.637Z,78.33
2023-10-04T09:58:31.548Z,77.79
2023-10-04T10:01:04.967Z,76.76
2023-10-04T10:03:37.556Z,76.36
2023-10-04T10:06:06.015Z,76.45
2023-10-04T10:08:35.303Z,76.57
2023-10-04T10:11:03.328Z,76.18
2023-10-04T10:13:31.323Z,75.48
2023-10-04T10:15:58.887Z,75.60
2023-10-04T10:18:26.278Z,76.03
2023-10-04T10:20:54.953Z,75.07
2023-10-04T10:23:22.274Z,74.91
2023-10-04T10:26:08.187Z,74.30
2023-10-04T10:28:35.407Z,74.76
2023-10-04T10:31:06.490Z,73.34
2023-10-04T10:33:34.192Z,73.08
2023-10-04T10:36:04.438Z,73.47
2023-10-04T10:38:40.796Z,72.84
2023-10-04T10:41:09.964Z,72.59
2023-10-04T10:44:09.842Z,72.81
2023-10-04T10:46:59.279Z,73.54
2023-10-04T10:49:42.118Z,74.30
2023-10-04T10:52:10.855Z,74.50
2023-10-04T10:54:38.014Z,75.14
2023-10-04T10:57:06.933Z,75.17
2023-10-04T10:59:35.088Z,74.59
2023-10-04T11:02:05.997Z,74.50
2023-10-04T11:04:33.572Z,74.96
2023-10-04T11:07:00.864Z,75.30
2023-10-04T11:09:40.957Z,75.00
2023-10-04T11:12:11.792Z,75.07
2023-10-04T11:14:38.990Z,75.11
2023-10-04T11:17:06.360Z,74.25
2023-10-04T11:19:35.429Z,74.09
2023-10-04T11:22:06.349Z,72.74
2023-10-04T11:24:38.223Z,72.08
2023-10-04T11:27:05.643Z,71.63
2023-10-04T11:29:34.619Z,71.99
2023-10-04T11:32:02.387Z,72.78
2023-10-04T11:34:35.434Z,72.67
2023-10-04T11:37:03.731Z,73.21
2023-10-04T11:39:35.561Z,73.13
2023-10-04T11:42:16.089Z,73.50
2023-10-04T11:44:44.098Z,73.32
2023-10-04T11:47:11.619Z,72.65
2023-10-04T11:49:42.323Z,73.00
2023-10-04T11:52:11.265Z,72.12
2023-10-04T11:54:39.098Z,72.17
2023-10-04T11:57:07.578Z,72.08
2023-10-04T11:59:37.075Z,72.05
2023-10-04T12:02:06.466Z,72.23
2023-10-04T12:04:36.044Z,72.56
2023-10-04T12:07:05.543Z,72.50
2023-10-04T12:09:35.943Z,71.94
2023-10-04T12:12:06.374Z,72.21
2023-10-04T12:14:34.544Z,72.29
2023-10-04T12:17:11.252Z,72.89
2023-10-04T12:19:40.130Z,72.65
2023-10-04T12:22:12.840Z,72.03
2023-10-04T12:24:41.245Z,72.63
2023-10-04T12:27:16.672Z,72.52
2023-10-04T12:32:18.326Z,72.43
2023-10-04T12:34:47.265Z,72.97
2023-10-04T12:37:17.892Z,73.98
2023-10-04T12:39:45.151Z,73.83
2023-10-04T12:42:12.619Z,74.08
2023-10-04T12:44:43.387Z,74.24
2023-10-04T12:47:11.209Z,73.94
2023-10-04T12:49:38.527Z,73.99
2023-10-04T12:52:10.347Z,73.94
2023-10-04T12:54:41.459Z,73.61
2023-10-04T12:57:08.706Z,74.19
2023-10-04T12:59:36.045Z,72.99
2023-10-04T13:02:04.931Z,71.04
2023-10-04T13:04:32.682Z,70.53
2023-10-04T13:07:02.981Z,69.94
2023-10-04T13:09:44.407Z,69.63
2023-10-04T13:12:19.976Z,68.64
2023-10-04T13:14:47.206Z,67.81
2023-10-04T13:17:14.554Z,63.22
2023-10-04T13:19:43.364Z,60.62
2023-10-04T13:22:11.572Z,62.01
2023-10-04T13:24:39.458Z,63.36
2023-10-04T13:27:06.866Z,64.02
2023-10-04T13:29:36.748Z,65.17
2023-10-04T13:32:09.044Z,66.01
2023-10-04T13:34:36.996Z,66.23
2023-10-04T13:37:04.240Z,67.07
2023-10-04T13:39:35.788Z,67.38
2023-10-04T13:42:17.943Z,68.13
2023-10-04T13:44:53.371Z,67.51
2023-10-04T13:47:21.590Z,67.83
2023-10-04T13:49:50.342Z,67.71
2023-10-04T13:52:18.586Z,66.67
2023-10-04T13:54:54.768Z,64.75
2023-10-04T13:57:24.508Z,65.50
2023-10-04T13:59:52.074Z,65.11
2023-10-04T14:02:20.777Z,64.52
2023-10-04T14:04:48.401Z,64.64
2023-10-04T14:07:17.403Z,64.31
2023-10-04T14:09:44.946Z,63.59
2023-10-04T14:12:12.337Z,62.62
2023-10-04T14:14:39.622Z,62.57
2023-10-04T14:17:09.710Z,62.63
2023-10-04T14:19:39.620Z,62.85
2023-10-04T14:22:09.788Z,63.19
2023-10-04T14:24:37.560Z,63.45
2023-10-04T14:27:07.200Z,63.32
2023-10-04T14:29:34.455Z,62.17
2023-10-04T14:32:02.083Z,62.20
2023-10-04T14:34:30.011Z,62.65
2023-10-04T14:36:58.226Z,62.52
2023-10-04T14:39:25.824Z,62.41
2023-10-04T14:41:54.348Z,62.30
2023-10-04T14:44:23.782Z,62.44
2023-10-04T14:46:51.966Z,63.08
2023-10-04T14:49:20.385Z,63.12
2023-10-04T14:51:47.698Z,63.45
2023-10-04T14:54:15.204Z,63.39
2023-10-04T14:56:43.344Z,63.82
2023-10-04T14:59:10.556Z,63.56
2023-10-04T15:01:38.796Z,64.31
2023-10-04T15:04:06.394Z,64.80
2023-10-04T15:06:33.721Z,65.39
2023-10-04T15:09:01.109Z,65.54
2023-10-04T15:11:30.607Z,65.81
2023-10-04T15:13:59.364Z,66.38
2023-10-04T15:16:26.995Z,67.33
2023-10-04T15:18:54.868Z,67.31
2023-10-04T15:21:22.199Z,67.14
2023-10-04T15:23:50.141Z,67.25
2023-10-04T15:26:18.581Z,68.16
2023-10-04T15:28:47.249Z,68.45
2023-10-04T15:31:15.135Z,68.37
2023-10-04T15:33:43.344Z,69.00
2023-10-04T15:36:11.732Z,68.56
2023-10-04T15:38:39.069Z,68.73
2023-10-04T15:41:06.339Z,68.66
2023-10-04T15:43:33.497Z,68.49
2023-10-04T15:46:00.764Z,69.02
2023-10-04T15:48:28.033Z,69.54
2023-10-04T15:50:55.205Z,69.28
2023-10-04T15:53:22.394Z,68.92
2023-10-04T15:55:49.490Z,69.29
2023-10-04T15:58:16.732Z,68.93
2023-10-04T16:00:43.902Z,69.05
2023-10-04T16:03:11.345Z,68.66
2023-10-04T16:05:38.580Z,68.83
2023-10-04T16:08:06.438Z,69.07
2023-10-04T16:10:33.940Z,69.39
2023-10-04T16:13:02.858Z,69.09
2023-10-04T16:15:31.968Z,68.73
2023-10-04T16:17:59.296Z,69.03
2023-10-04T16:20:26.788Z,68.86
2023-10-04T16:22:58.813Z,69.30
2023-10-04T16:25:27.656Z,69.09
2023-10-04T16:27:55.334Z,69.08
2023-10-04T16:30:22.827Z,69.03
2023-10-04T16:32:50.422Z,68.81
2023-10-04T16:35:20.844Z,69.25
2023-10-04T16:37:52.255Z,69.49
2023-10-04T16:40:21.034Z,69.52
2023-10-04T16:42:51.431Z,69.34
2023-10-04T16:45:21.524Z,69.17
2023-10-04T16:47:49.454Z,68.58
2023-10-04T16:50:20.973Z,68.98
2023-10-04T16:52:49.509Z,69.21
2023-10-04T16:55:16.984Z,68.99
2023-10-04T16:57:48.521Z,68.79
2023-10-04T17:00:17.350Z,68.79
2023-10-04T17:02:44.941Z,69.05
2023-10-04T17:05:12.497Z,68.98
2023-10-04T17:07:41.269Z,68.57
2023-10-04T17:10:09.867Z,68.50
2023-10-04T17:12:37.528Z,67.96
2023-10-04T17:15:05.451Z,67.86
2023-10-04T17:17:33.335Z,67.95
2023-10-04T17:20:01.030Z,68.18
2023-10-04T17:25:19.304Z,67.92
2023-10-04T17:27:47.695Z,68.00
2023-10-04T17:30:18.853Z,68.18
2023-10-04T17:32:47.157Z,68.10
2023-10-04T17:35:15.553Z,68.51
2023-10-04T17:37:43.558Z,68.27
2023-10-04T17:40:11.859Z,68.55
2023-10-04T17:42:39.320Z,68.72
2023-10-04T17:45:07.184Z,68.75
2023-10-04T17:47:34.589Z,69.09
2023-10-04T17:50:02.123Z,68.73
2023-10-04T17:52:29.875Z,69.11
2023-10-04T17:54:58.634Z,69.05
2023-10-04T17:57:27.505Z,69.16
2023-10-04T17:59:54.897Z,69.40
2023-10-04T18:02:23.289Z,69.42
2023-10-04T18:04:51.963Z,69.50
2023-10-04T18:07:20.025Z,69.76
2023-10-04T18:09:50.310Z,70.27
2023-10-04T18:12:18.513Z,70.37
2023-10-04T18:14:46.487Z,70.64
2023-10-04T18:17:14.005Z,70.03
2023-10-04T18:19:42.554Z,69.74
2023-10-04T18:22:13.239Z,69.36
2023-10-04T18:25:07.162Z,69.79
2023-10-04T18:27:34.838Z,68.61
2023-10-04T18:30:07.366Z,67.28
2023-10-04T18:32:34.909Z,67.29
2023-10-04T18:35:02.184Z,67.31
2023-10-04T18:37:30.271Z,66.88
2023-10-04T18:40:00.502Z,66.45
2023-10-04T18:42:31.320Z,65.70
2023-10-04T18:45:05.780Z,65.71
2023-10-04T18:47:33.841Z,65.11
2023-10-04T18:50:05.052Z,64.50
2023-10-04T18:52:35.117Z,64.70
2023-10-04T18:55:07.887Z,63.90
2023-10-04T18:57:39.582Z,63.10
2023-10-04T19:00:08.921Z,62.94
2023-10-04T19:02:37.398Z,63.01
2023-10-04T19:05:11.604Z,62.85
2023-10-04T19:07:42.150Z,63.44
2023-10-04T19:10:09.960Z,63.55
2023-10-04T19:12:37.161Z,63.62
2023-10-04T19:15:05.859Z,63.62
2023-10-04T19:17:33.671Z,63.83
2023-10-04T19:20:00.911Z,63.78
2023-10-04T19:22:32.918Z,63.53
2023-10-04T19:25:00.865Z,63.82
2023-10-04T19:27:28.438Z,63.72
2023-10-04T19:29:58.655Z,63.85
2023-10-04T19:32:26.943Z,63.72
2023-10-04T19:34:54.333Z,63.88
2023-10-04T19:37:25.338Z,63.80
2023-10-04T19:39:53.899Z,63.82
2023-10-04T19:42:21.194Z,64.48
2023-10-04T19:44:55.740Z,64.21
2023-10-04T19:47:24.812Z,64.04
2023-10-04T19:49:52.001Z,63.82
2023-10-04T19:52:19.715Z,63.43
2023-10-04T19:54:47.186Z,63.27
2023-10-04T19:57:14.350Z,63.50
2023-10-04T19:59:43.663Z,63.45
2023-10-04T20:02:11.745Z,63.29
2023-10-04T20:04:41.620Z,62.68
2023-10-04T20:07:11.298Z,62.12
2023-10-04T20:09:41.993Z,61.70
2023-10-04T20:12:10.689Z,61.69
2023-10-04T20:14:38.647Z,61.97
2023-10-04T20:17:07.798Z,61.72
2023-10-04T20:19:35.741Z,61.59
2023-10-04T20:22:04.935Z,61.44
2023-10-04T20:24:35.747Z,61.56
2023-10-04T20:27:02.969Z,61.41
2023-10-04T20:29:31.492Z,61.56
2023-10-04T20:31:59.354Z,62.01
2023-10-04T20:34:31.408Z,61.10
2023-10-04T20:37:01.107Z,61.13
2023-10-04T20:39:29.681Z,61.85
2023-10-04T20:41:59.712Z,61.24
2023-10-04T20:44:27.881Z,61.08
2023-10-04T20:46:55.221Z,61.51
2023-10-04T20:49:23.381Z,61.08
2023-10-04T20:51:53.311Z,61.11
2023-10-04T20:54:20.649Z,60.63
2023-10-04T20:56:47.962Z,60.73
2023-10-04T20:59:15.627Z,60.70
2023-10-04T21:01:42.864Z,61.08
2023-10-04T21:04:11.123Z,61.01
2023-10-04T21:06:38.593Z,60.95
2023-10-04T21:09:05.911Z,61.17
2023-10-04T21:11:33.036Z,61.00
2023-10-04T21:14:00.265Z,60.93
2023-10-04T21:16:27.471Z,60.69
2023-10-04T21:18:54.795Z,60.67
2023-10-04T21:21:22.355Z,60.58
2023-10-04T21:23:52.122Z,61.25
2023-10-04T21:26:20.532Z,61.14
2023-10-04T21:28:48.956Z,61.42
2023-10-04T21:31:16.428Z,61.09
2023-10-04T21:33:45.838Z,61.33
2023-10-04T21:36:14.472Z,61.06
2023-10-04T21:38:52.337Z,61.34
2023-10-04T21:41:23.187Z,61.03
2023-10-04T21:44:05.165Z,61.64
2023-10-04T21:46:39.437Z,61.79
2023-10-04T21:49:08.669Z,61.64
2023-10-04T21:51:54.173Z,61.20
2023-10-04T21:54:25.193Z,62.02
2023-10-04T21:56:52.556Z,62.89
2023-10-04T21:59:19.770Z,63.49
2023-10-04T22:01:51.753Z,63.10
2023-10-04T22:04:19.400Z,64.44
2023-10-04T22:06:46.891Z,64.06
2023-10-04T22:09:20.460Z,65.65
2023-10-04T22:11:49.776Z,65.67
2023-10-04T22:14:18.757Z,67.04
2023-10-04T22:16:46.019Z,66.49
2023-10-04T22:19:16.725Z,67.26
2023-10-04T22:21:45.591Z,66.66
2023-10-04T22:24:12.868Z,67.40
2023-10-04T22:26:41.742Z,67.58
2023-10-04T22:29:21.194Z,67.51
2023-10-04T22:31:58.331Z,67.96
2023-10-04T22:34:25.693Z,68.39
2023-10-04T22:36:53.040Z,68.68
2023-10-04T22:39:20.188Z,68.29
2023-10-04T22:41:47.471Z,69.02
2023-10-04T22:44:17.157Z,68.68
2023-10-04T22:46:48.861Z,69.22
2023-10-04T22:49:16.333Z,69.08
2023-10-04T22:51:43.499Z,68.73
2023-10-04T22:54:10.869Z,68.37
2023-10-04T22:56:41.313Z,67.19
2023-10-04T22:59:13.713Z,67.75
2023-10-04T23:01:41.494Z,69.34
2023-10-04T23:04:09.016Z,67.74
2023-10-04T23:06:36.619Z,68.34
2023-10-04T23:09:12.090Z,69.18
2023-10-04T23:11:40.118Z,69.03
2023-10-04T23:14:07.827Z,68.19
2023-10-04T23:16:38.323Z,69.40
2023-10-04T23:19:12.613Z,70.68
2023-10-04T23:21:43.656Z,69.60
2023-10-04T23:24:15.450Z,70.70
2023-10-04T23:26:45.088Z,70.69
2023-10-04T23:29:14.391Z,70.73
2023-10-04T23:31:43.608Z,70.77
2023-10-04T23:34:11.422Z,70.89
2023-10-04T23:36:42.245Z,71.00
2023-10-04T23:39:10.874Z,70.73
2023-10-04T23:41:38.246Z,70.34
2023-10-04T23:44:12.256Z,70.67
2023-10-04T23:46:40.189Z,68.76
2023-10-04T23:49:25.441Z,68.88
2023-10-04T23:51:54.462Z,66.26
2023-10-04T23:54:23.457Z,67.70
2023-10-04T23:56:53.961Z,64.79
2023-10-04T23:59:22.263Z,64.76
